Weather at Frankfurt Airport

Public forecast

Using degrees Celsius for public forecast. Weather courtesy of forecast.io.

Current aviation weather report (METAR) for Frankfurt Airport

2022/12/06 07:50 (retrieved 10 minutes ago)

EDDF 060750Z AUTO 25004KT 9999 -RADZ BKN014 03/02 Q1018 NOSIG

Aviation forecast (TAF) for Frankfurt Airport

2022/12/06 06:28 (retrieved 2 hours ago)

TAF EDDF 060500Z 0606/0712 27005KT 9999 BKN030 PROB30 TEMPO 0606/0616 4000 -DZ BKN012 BECMG 0700/0702 21005KT PROB40 TEMPO 0702/0712 4000 -RADZ BKN014